Flight Track Log - Related Links

Times and Time Zones

All times are in EDT time to prevent confusion due to time zone crossing. See the EJA396 flight status page for this flight to view local times or setup timezone preferences in your user account.

Time Position Orientation Groundspeed Altitude Reporting Facility
EDT Latitude Longitude Course Direction KTS MPH feet Rate Location/Type
Mon 04:23:46 PM 41.2853 -95.9014 176° South 163 188 2,200  Level Minneapolis Center
Mon 04:24:49 PM 41.2342 -95.8969 176° South 215 247 6,000 3,984 Climbing Minneapolis Center
Mon 04:25:51 PM 41.1492 -95.8911 177° South 238 274 10,500 3,484 Climbing Minneapolis Center
Mon 04:26:53 PM 41.0642 -95.8525 161° South 315 362 13,200 1,984 Climbing Minneapolis Center
Mon 04:27:55 PM 40.9767 -95.8011 156° South 339 390 14,600 2,516 Climbing Minneapolis Center
Mon 04:28:57 PM 40.8878 -95.7511 157° South 345 397 18,400 3,290 Climbing Minneapolis Center
Mon 04:29:59 PM 40.7969 -95.6986 156° South 351 404 21,400 3,097 Climbing Minneapolis Center
Mon 04:31:01 PM 40.7050 -95.6361 153° Southeast 366 421 24,800 3,097 Climbing Minneapolis Center
Mon 04:32:03 PM 40.5944 -95.5572 152° Southeast 374 430 27,800 2,516 Climbing Minneapolis Center
Mon 04:33:05 PM 40.5000 -95.4917 152° Southeast 381 438 30,000 1,887 Climbing Minneapolis Center
Mon 04:34:07 PM 40.4044 -95.4236 152° Southeast 388 447 31,700 1,548 Climbing Minneapolis Center
Mon 04:35:09 PM 40.3092 -95.3572 152° Southeast 388 447 33,200 1,104 Climbing Minneapolis Center
Mon 04:36:12 PM 40.2139 -95.2972 154° Southeast 382 440 34,000 384 Climbing Minneapolis Center
Mon 04:37:14 PM 40.1150 -95.2333 154° Southeast 390 449 34,000 522 Level Minneapolis Center
Mon 04:37:44 PM 40.0519 -95.1933 154° Southeast 399 459 34,800 1,304 Climbing Kansas City Center
Mon 04:38:46 PM 39.9581 -95.1369 155° Southeast 385 443 36,000 1,065 Climbing Kansas City Center
Mon 04:39:48 PM 39.8472 -95.0728 156° South 389 448 37,000 1,258 Climbing Kansas City Center
Mon 04:40:50 PM 39.7747 -94.9867 138° Southeast 367 422 38,600 968 Climbing Kansas City Center
Mon 04:41:52 PM 39.7308 -94.8550 113° Southeast 366 421 39,000 194 Climbing Kansas City Center
Mon 04:42:54 PM 39.7369 -94.7225 87° East 383 441 39,000  Level Kansas City Center
Mon 04:43:56 PM 39.7431 -94.5839 87° East 396 456 39,000  Level Kansas City Center
Mon 04:44:58 PM 39.7486 -94.4206 87° East 403 464 39,000  Level Kansas City Center
Mon 04:46:00 PM 39.7539 -94.2825 87° East 399 459 39,000 484 Level Kansas City Center
Mon 04:47:02 PM 39.7375 -94.1283 98° East 385 443 40,000 629 Climbing Kansas City Center
Mon 04:48:04 PM 39.7117 -94.0017 105° East 379 436 40,300 677 Climbing Kansas City Center
Mon 04:49:06 PM 39.6775 -93.8550 107° East 378 435 41,400 919 Climbing Kansas City Center
Mon 04:50:08 PM 39.6481 -93.7250 106° East 384 442 42,200 624 Climbing Kansas City Center
Mon 04:51:11 PM 39.6178 -93.5911 106° East 390 449 42,700 384 Climbing Kansas City Center
Mon 04:52:13 PM 39.5875 -93.4553 106° East 394 453 43,000 145 Climbing Kansas City Center
Mon 04:53:15 PM 39.5481 -93.2861 107° East 406 467 43,000  Level Kansas City Center
Mon 04:54:17 PM 39.5144 -93.1394 107° East 425 489 43,000  Level Kansas City Center
Mon 04:55:19 PM 39.4808 -92.9897 106° East 434 499 43,000  Level Kansas City Center
Mon 04:56:21 PM 39.4578 -92.8372 101° East 437 503 43,000  Level Kansas City Center
Mon 04:57:23 PM 39.4311 -92.6558 101° East 436 502 43,000  Level Kansas City Center
Mon 04:58:25 PM 39.4092 -92.5072 101° East 431 496 43,000  Level Kansas City Center
Mon 04:59:27 PM 39.3886 -92.3617 100° East 423 487 43,000  Level Kansas City Center
Mon 05:00:29 PM 39.3664 -92.2150 101° East 421 484 43,000  Level Kansas City Center
Mon 05:01:31 PM 39.3456 -92.0689 100° East 420 483 43,000  Level Kansas City Center
Mon 05:02:33 PM 39.3053 -91.8958 107° East 422 486 43,000  Level Kansas City Center
Mon 05:03:36 PM 39.2631 -91.7592 112° Southeast 419 482 43,000  Level Kansas City Center
Mon 05:04:38 PM 39.2186 -91.6217 113° Southeast 415 478 43,000  Level Kansas City Center
Mon 05:05:40 PM 39.1761 -91.4833 112° Southeast 416 479 43,000  Level Kansas City Center
Mon 05:06:42 PM 39.1331 -91.3453 112° Southeast 416 479 43,000  Level Kansas City Center
Mon 05:07:44 PM 39.0900 -91.2075 112° Southeast 414 476 43,000  Level Kansas City Center
Mon 05:08:46 PM 39.0364 -91.0369 112° Southeast 422 486 43,000  Level Kansas City Center
Mon 05:09:48 PM 38.9914 -90.8931 112° Southeast 429 494 43,000  Level Kansas City Center
Mon 05:10:50 PM 38.9458 -90.7514 112° Southeast 430 495 43,000  Level Kansas City Center
Mon 05:11:52 PM 38.9003 -90.6086 112° Southeast 430 495 43,000  Level Kansas City Center
Mon 05:12:54 PM 38.8814 -90.4606 99° East 433 498 43,000  Level Kansas City Center
Mon 05:13:56 PM 38.9281 -90.3244 66° East 416 479 43,000  Level Kansas City Center
Mon 05:14:58 PM 38.9908 -90.1844 60° Northeast 431 496 43,000  Level Kansas City Center
Mon 05:16:00 PM 39.0603 -90.0228 61° Northeast 431 496 43,000  Level Kansas City Center
Mon 05:17:02 PM 39.1178 -89.8889 61° Northeast 423 487 43,000  Level Kansas City Center
Mon 05:18:04 PM 39.1786 -89.7469 61° Northeast 420 483 43,000  Level Kansas City Center
Mon 05:19:06 PM 39.2283 -89.6244 62° Northeast 424 488 43,000  Level Kansas City Center
Mon 05:20:08 PM 39.2847 -89.4925 61° Northeast 423 487 43,000  Level Kansas City Center
Mon 05:21:10 PM 39.3408 -89.3614 61° Northeast 420 483 43,000  Level Kansas City Center
Mon 05:22:12 PM 39.4061 -89.2036 62° Northeast 418 481 43,000  Level Kansas City Center
Mon 05:23:14 PM 39.4608 -89.0733 61° Northeast 414 476 43,000  Level Kansas City Center
Mon 05:24:16 PM 39.5150 -88.9422 62° Northeast 413 475 43,000  Level Kansas City Center
Mon 05:25:18 PM 39.5708 -88.8083 62° Northeast 416 479 43,000  Level Kansas City Center
Mon 05:26:20 PM 39.6261 -88.6728 62° Northeast 420 483 43,000  Level Kansas City Center
Mon 05:27:22 PM 39.6819 -88.5381 62° Northeast 423 487 43,000  Level Kansas City Center
Mon 05:28:24 PM 39.7469 -88.3794 62° Northeast 419 482 43,000  Level Kansas City Center
Mon 05:29:26 PM 39.8014 -88.2453 62° Northeast 420 483 43,000 -290 Level Kansas City Center
Mon 05:30:28 PM 39.8608 -88.0972 62° Northeast 424 488 42,400 -556 Descending Kansas City Center
Mon 05:31:14 PM 39.8978 -88.0067 62° Northeast 439 505 42,000 -611 Descending Chicago Center
Mon 05:32:16 PM 39.9561 -87.8600 63° Northeast 453 521 41,300 -480 Descending Chicago Center
Mon 05:33:19 PM 40.0161 -87.7100 62° Northeast 461 531 41,000 -144 Descending Indianapolis Center
Mon 05:34:21 PM 40.0858 -87.5353 62° Northeast 454 522 41,000  Level Indianapolis Center
Mon 05:35:22 PM 40.1567 -87.4022 55° Northeast 450 518 41,000  Level Chicago Center
Mon 05:36:23 PM 40.2303 -87.2719 53° Northeast 445 512 41,000  Level Chicago Center
Mon 05:37:25 PM 40.3044 -87.1417 53° Northeast 444 511 41,000 -726 Level Chicago Center
Mon 05:38:27 PM 40.3792 -87.0100 53° Northeast 450 518 39,500 -1,935 Descending Chicago Center
Mon 05:39:29 PM 40.4550 -86.8750 54° Northeast 457 526 37,000 -2,371 Descending Chicago Center
Mon 05:40:31 PM 40.5311 -86.7400 53° Northeast 458 527 34,600 -1,935 Descending Chicago Center
Mon 05:41:33 PM 40.6069 -86.6042 54° Northeast 460 529 33,000 -774 Descending Chicago Center
Mon 05:42:35 PM 40.6742 -86.4383 62° Northeast 431 496 33,000 -878 Level Chicago Center
Mon 05:43:36 PM 40.7256 -86.2964 64° Northeast 456 525 31,200 -2,098 Descending Chicago Center
Mon 05:44:38 PM 40.7806 -86.1436 65° Northeast 463 533 28,700 -2,419 Descending Chicago Center
Mon 05:45:40 PM 40.8344 -85.9914 65° Northeast 461 531 26,200 -2,274 Descending Chicago Center
Mon 05:46:42 PM 40.8992 -85.8128 64° Northeast 454 522 24,000 -1,366 Descending Chicago Center
Mon 05:47:43 PM 40.9511 -85.6656 65° Northeast 448 516 23,400 -1,073 Descending Chicago Center
Mon 05:48:45 PM 41.0036 -85.5164 65° Northeast 451 519 21,800 -1,452 Descending Chicago Center
Mon 05:49:47 PM 41.0539 -85.3731 65° Northeast 435 501 20,400 -1,355 Descending Chicago Center
Mon 05:50:49 PM 41.1028 -85.2297 66° East 432 497 19,000 -1,306 Descending Chicago Center
Mon 05:51:51 PM 41.1494 -85.0956 65° Northeast 414 476 17,700 -1,366 Descending Chicago Center
Mon 05:52:52 PM 41.2056 -84.9342 65° Northeast 405 466 16,200 -1,317 Descending Chicago Center
Mon 05:53:54 PM 41.2511 -84.8031 65° Northeast 398 458 15,000 -581 Descending Chicago Center
Mon 05:54:56 PM 41.2964 -84.6700 66° East 397 457 15,000 -629 Level Chicago Center
Mon 05:55:58 PM 41.3422 -84.5378 65° Northeast 396 456 13,700 -1,366 Descending Chicago Center
Mon 05:56:59 PM 41.3858 -84.4103 65° Northeast 384 442 12,200 -1,463 Descending Chicago Center
Mon 05:58:01 PM 41.4275 -84.2847 66° East 376 433 10,700 -1,597 Descending Chicago Center
Mon 05:59:03 PM 41.4581 -84.1489 73° East 340 391 8,900 -1,584 Descending Chicago Center
Mon 06:00:06 PM 41.4644 -84.0375 86° East 317 365 7,400 -864 Descending Chicago Center
Mon 06:01:08 PM 41.4739 -83.9253 84° East 308 354 7,100 -796 Descending Chicago Center
Mon 06:01:59 PM 41.4800 -83.8372 85° East 297 342 5,900 -1,730 Descending Cleveland Center
Mon 06:02:59 PM 41.5181 -83.7419 62° Northeast 284 327 3,900 -1,450 Descending Cleveland Center
Mon 06:03:59 PM 41.5661 -83.6639 51° Northeast 271 312 3,000 -750 Descending Cleveland Center
Mon 06:04:59 PM 41.6175 -83.6914 338° Northwest 214 246 2,400 -600 Descending Cleveland Center

Login

Don't have an account? Register now (free) for customized features, flight alerts, and more!